Time;durP1;ratioP1;P1;durP2;ratioP2;P2;SDS_P1;SDS_P2;PMS_P1;PMS_P2;Temp;Humidity;BMP_temperature;BMP_pressure;BME280_temperature;BME280_humidity;BME280_pressure;Samples;Min_cycle;Max_cycle;Signal;HPM_P1;HPM_P2
2023/03/16 00:02:17;;;;;;;14.00;3.97;;;-3275.70;95.80;;;;;;5053844;28;20389;-77
2023/03/16 00:04:46;;;;;;;8.82;3.65;;;-3275.70;95.90;;;;;;5049009;28;20076;-77
2023/03/16 00:07:12;;;;;;;9.63;4.30;;;-3275.70;95.90;;;;;;5051775;28;20102;-76
2023/03/16 00:09:42;;;;;;;10.60;4.15;;;-3275.60;95.80;;;;;;5052780;28;20072;-77
2023/03/16 00:12:17;;;;;;;11.93;3.72;;;-3275.60;95.80;;;;;;5043878;28;20028;-77
2023/03/16 00:14:44;;;;;;;10.32;3.33;;;-3275.60;95.80;;;;;;5062036;28;20026;-77
2023/03/16 00:17:17;;;;;;;8.02;3.78;;;-3275.50;95.80;;;;;;5049119;28;20033;-77
2023/03/16 00:19:53;;;;;;;7.65;3.50;;;-3275.50;95.90;;;;;;5050734;28;20029;-75
2023/03/16 00:22:20;;;;;;;11.40;3.58;;;-3275.60;96.00;;;;;;5045120;28;20111;-76
2023/03/16 00:24:46;;;;;;;12.25;3.92;;;-3275.50;95.70;;;;;;5051191;28;20049;-77
2023/03/16 00:27:13;;;;;;;16.20;3.50;;;-3275.40;95.70;;;;;;5052470;28;20067;-77
2023/03/16 00:29:46;;;;;;;7.57;3.35;;;-3275.40;96.00;;;;;;5051040;28;20032;-74
2023/03/16 00:32:15;;;;;;;10.90;3.42;;;-3275.40;95.90;;;;;;5048112;28;20045;-76
2023/03/16 00:34:40;;;;;;;11.30;2.72;;;-3275.30;95.90;;;;;;5043419;28;20029;-74
2023/03/16 00:37:06;;;;;;;12.02;4.05;;;-3275.40;96.00;;;;;;5051077;28;20463;-77
2023/03/16 00:39:34;;;;;;;11.02;3.60;;;-3275.40;96.00;;;;;;5050829;28;20037;-76
2023/03/16 00:42:00;;;;;;;9.25;2.90;;;-3275.40;96.00;;;;;;5049922;28;20021;-77
2023/03/16 00:44:26;;;;;;;12.65;3.20;;;-3275.40;96.00;;;;;;5051680;28;20044;-77
2023/03/16 00:46:52;;;;;;;9.68;2.92;;;-3275.40;95.90;;;;;;5049738;28;20029;-75
2023/03/16 00:49:17;;;;;;;9.27;3.35;;;-3275.50;96.00;;;;;;5048509;28;20111;-76
2023/03/16 00:51:45;;;;;;;14.20;3.13;;;-3275.50;95.80;;;;;;5051040;28;20486;-76
2023/03/16 00:54:11;;;;;;;10.20;3.10;;;-3275.50;95.70;;;;;;5050641;28;20114;-76
2023/03/16 00:56:37;;;;;;;6.93;3.03;;;-3275.60;95.70;;;;;;5054887;28;20155;-76
2023/03/16 00:59:04;;;;;;;9.18;3.00;;;-3275.70;95.50;;;;;;5052406;28;20472;-76
2023/03/16 01:01:31;;;;;;;11.32;3.83;;;-3275.70;95.20;;;;;;5051729;28;20021;-76
2023/03/16 01:03:58;;;;;;;10.93;3.00;;;-3275.70;95.00;;;;;;5050304;28;20029;-74
2023/03/16 01:06:24;;;;;;;15.77;3.25;;;-3275.70;95.10;;;;;;5038710;28;20026;-75
2023/03/16 01:08:51;;;;;;;9.10;2.78;;;-3275.70;94.80;;;;;;5052846;28;20044;-76
2023/03/16 01:11:20;;;;;;;12.10;2.78;;;-3275.60;94.70;;;;;;5052440;28;20087;-76
2023/03/16 01:13:47;;;;;;;11.23;3.08;;;-3275.70;94.70;;;;;;5047994;28;20035;-76
2023/03/16 01:16:14;;;;;;;10.70;3.28;;;-3275.70;94.30;;;;;;5045732;28;20477;-73
2023/03/16 01:18:40;;;;;;;9.10;3.15;;;-3275.60;94.30;;;;;;5048201;28;20045;-76
2023/03/16 01:21:08;;;;;;;12.38;3.30;;;-3275.70;94.30;;;;;;5044128;28;20066;-76
2023/03/16 01:23:35;;;;;;;12.18;2.83;;;-3275.70;94.10;;;;;;5045521;28;20037;-76
2023/03/16 01:26:01;;;;;;;8.65;2.80;;;-3275.80;93.70;;;;;;5048671;28;20041;-76
2023/03/16 01:28:28;;;;;;;10.63;2.65;;;-3275.80;93.50;;;;;;5050503;28;20104;-76
2023/03/16 01:30:58;;;;;;;7.53;2.65;;;-3275.80;93.20;;;;;;5045916;28;20104;-76
2023/03/16 01:33:25;;;;;;;9.50;2.67;;;-3275.80;93.10;;;;;;5059748;28;20037;-76
2023/03/16 01:36:03;;;;;;;11.90;3.10;;;-3275.80;92.70;;;;;;5044166;28;20432;-75
2023/03/16 01:38:28;;;;;;;6.70;2.55;;;-3275.80;92.60;;;;;;5047547;28;20109;-75
2023/03/16 01:40:54;;;;;;;8.13;2.22;;;-3275.90;92.30;;;;;;5047797;28;20027;-76
2023/03/16 01:43:22;;;;;;;9.82;2.40;;;-3276.00;91.90;;;;;;5044885;28;20045;-76
2023/03/16 01:45:57;;;;;;;6.20;2.53;;;-3276.00;91.30;;;;;;5049944;28;20493;-76
2023/03/16 01:48:24;;;;;;;4.75;2.25;;;-3276.10;91.20;;;;;;5049308;28;20111;-76
2023/03/16 01:50:51;;;;;;;6.28;2.47;;;-3276.30;89.90;;;;;;5048149;28;20440;-76
2023/03/16 01:53:19;;;;;;;8.50;2.75;;;-3276.30;89.50;;;;;;5048454;28;20062;-75
2023/03/16 01:55:45;;;;;;;6.30;2.10;;;-3276.30;89.70;;;;;;5051222;28;20039;-76
2023/03/16 01:58:13;;;;;;;10.35;2.22;;;-3276.20;89.90;;;;;;5048941;28;20036;-75
2023/03/16 02:00:40;;;;;;;9.82;2.25;;;-3276.30;89.80;;;;;;5048709;28;20383;-76
2023/03/16 02:03:15;;;;;;;10.02;3.10;;;-3276.30;89.40;;;;;;5049057;28;20529;-76
2023/03/16 02:05:43;;;;;;;7.75;2.83;;;-3276.30;89.20;;;;;;5045720;28;20033;-76
2023/03/16 02:08:11;;;;;;;5.88;2.22;;;-3276.30;89.20;;;;;;5054451;28;20533;-75
2023/03/16 02:10:37;;;;;;;5.85;2.35;;;-3276.30;88.50;;;;;;5049897;28;20056;-76
2023/03/16 02:13:03;;;;;;;8.95;2.20;;;-3276.30;88.80;;;;;;5048596;28;20028;-75
2023/03/16 02:15:28;;;;;;;8.60;2.42;;;-3276.30;88.80;;;;;;5046205;28;20037;-73
2023/03/16 02:17:56;;;;;;;4.38;1.98;;;-3276.20;88.60;;;;;;5047691;28;20398;-76
2023/03/16 02:20:33;;;;;;;8.10;2.40;;;-3276.20;88.70;;;;;;5039751;28;20120;-76
2023/03/16 02:22:59;;;;;;;13.27;2.47;;;-3276.20;88.60;;;;;;5046420;28;20484;-76
2023/03/16 02:25:46;;;;;;;6.43;1.98;;;-3276.10;88.60;;;;;;5048854;28;20120;-75
2023/03/16 02:28:26;;;;;;;7.05;2.03;;;-3276.10;88.80;;;;;;5041039;28;20044;-75
2023/03/16 02:30:52;;;;;;;8.52;2.10;;;-3276.20;88.40;;;;;;5045486;28;20032;-76
2023/03/16 02:33:20;;;;;;;9.80;2.28;;;-3276.20;88.40;;;;;;5050091;28;20041;-75
2023/03/16 02:35:45;;;;;;;6.85;2.17;;;-3276.20;88.30;;;;;;5045734;28;20029;-76
2023/03/16 02:38:11;;;;;;;3.25;1.92;;;-3276.20;88.40;;;;;;5046578;28;20044;-74
2023/03/16 02:40:37;;;;;;;6.68;2.03;;;-3276.20;88.10;;;;;;5043108;28;22105;-75
2023/03/16 02:43:09;;;;;;;9.68;2.60;;;-3276.40;87.80;;;;;;5046476;28;20465;-76
2023/03/16 02:45:44;;;;;;;8.32;2.35;;;-3276.40;87.50;;;;;;5047692;28;20032;-77
2023/03/16 02:48:17;;;;;;;8.38;2.08;;;-3276.40;87.30;;;;;;5044849;28;20044;-75
2023/03/16 02:50:52;;;;;;;6.93;2.50;;;-3276.40;87.30;;;;;;5045924;28;20028;-75
2023/03/16 02:53:18;;;;;;;5.60;2.05;;;-3276.50;86.80;;;;;;5040425;28;20377;-74
2023/03/16 02:55:44;;;;;;;7.40;2.28;;;-3276.50;86.40;;;;;;5048449;28;20097;-74
2023/03/16 02:58:10;;;;;;;5.70;1.95;;;-3276.40;86.90;;;;;;5047732;28;20021;-74
2023/03/16 03:00:37;;;;;;;6.07;1.80;;;-3276.40;87.00;;;;;;5046178;28;20397;-74
2023/03/16 03:03:03;;;;;;;7.63;2.03;;;-3276.40;86.80;;;;;;5040050;28;20027;-77
2023/03/16 03:05:28;;;;;;;3.75;1.63;;;-3276.30;87.10;;;;;;5044198;28;20036;-74
2023/03/16 03:07:54;;;;;;;7.68;2.05;;;-3276.40;87.20;;;;;;5050633;28;20040;-72
2023/03/16 03:10:20;;;;;;;5.25;1.95;;;-3276.40;86.90;;;;;;5046225;28;20028;-73
2023/03/16 03:12:48;;;;;;;5.22;2.20;;;-3276.40;86.40;;;;;;5044963;28;20044;-75
2023/03/16 03:15:14;;;;;;;4.55;1.73;;;-3276.40;86.90;;;;;;5035963;28;20112;-74
2023/03/16 03:17:41;;;;;;;5.95;1.60;;;-3276.40;86.70;;;;;;5046870;28;20029;-75
2023/03/16 03:20:12;;;;;;;7.70;2.13;;;-3276.30;86.80;;;;;;5045416;28;20024;-75
2023/03/16 03:22:38;;;;;;;;;;;-3276.30;87.00;;;;;;5044332;28;20036;-75
2023/03/16 03:25:05;;;;;;;6.70;1.83;;;-3276.30;87.10;;;;;;5046009;28;20238;-74
2023/03/16 03:27:32;;;;;;;4.45;1.65;;;-3276.30;87.40;;;;;;5046069;28;20040;-75
2023/03/16 03:29:57;;;;;;;5.75;1.58;;;-3276.30;87.40;;;;;;5048201;28;20477;-74
2023/03/16 03:32:22;;;;;;;6.28;1.92;;;-3276.30;87.20;;;;;;5045795;28;20091;-75
2023/03/16 03:34:48;;;;;;;7.88;2.17;;;-3276.30;87.70;;;;;;5046579;28;20029;-75
2023/03/16 03:37:13;;;;;;;8.13;2.10;;;-3276.30;87.50;;;;;;5043083;28;20029;-74
2023/03/16 03:39:39;;;;;;;5.03;1.65;;;-3276.30;87.30;;;;;;5040984;28;20037;-74
2023/03/16 03:42:05;;;;;;;5.45;2.05;;;-3276.30;87.20;;;;;;5044634;28;20037;-75
2023/03/16 03:44:33;;;;;;;7.15;2.10;;;-3276.20;87.30;;;;;;5049231;28;20477;-75
2023/03/16 03:46:59;;;;;;;7.78;1.95;;;-3276.30;87.20;;;;;;5048480;28;20025;-75
2023/03/16 03:49:25;;;;;;;5.80;1.70;;;-3276.30;87.40;;;;;;5048694;28;20099;-75
2023/03/16 03:51:50;;;;;;;7.20;1.95;;;-3276.30;87.30;;;;;;5040632;28;20765;-75
2023/03/16 03:54:16;;;;;;;6.72;2.10;;;-3276.20;87.30;;;;;;5050178;28;20045;-75
2023/03/16 03:56:42;;;;;;;5.72;1.98;;;-3276.20;87.40;;;;;;5046476;28;20056;-74
2023/03/16 03:59:07;;;;;;;5.40;2.75;;;-3276.10;87.60;;;;;;5050154;28;20131;-75
2023/03/16 04:01:33;;;;;;;6.45;2.10;;;-3276.10;87.60;;;;;;5044976;28;20466;-74
2023/03/16 04:03:59;;;;;;;3.97;2.03;;;-3276.10;87.50;;;;;;5046953;28;20092;-74
2023/03/16 04:06:24;;;;;;;6.90;2.17;;;-3276.10;87.70;;;;;;5045666;28;20087;-72
2023/03/16 04:08:50;;;;;;;5.63;2.20;;;-3276.10;87.70;;;;;;5038766;28;20037;-74
2023/03/16 04:11:15;;;;;;;6.35;1.90;;;-3276.00;87.50;;;;;;5044642;28;20501;-72
2023/03/16 04:13:41;;;;;;;8.43;2.40;;;-3276.00;87.70;;;;;;5046505;28;20388;-74
2023/03/16 04:16:06;;;;;;;5.70;1.67;;;-3276.10;87.70;;;;;;5044012;28;20032;-74
2023/03/16 04:18:37;;;;;;;7.15;2.20;;;-3276.00;87.40;;;;;;5046154;28;20535;-74
2023/03/16 04:21:11;;;;;;;7.85;2.17;;;-3276.00;87.40;;;;;;5042019;28;20525;-74
2023/03/16 04:23:36;;;;;;;6.07;2.28;;;-3276.00;87.50;;;;;;5043155;28;20381;-73
2023/03/16 04:26:04;;;;;;;5.05;2.00;;;-3275.90;87.60;;;;;;5046233;28;20021;-74
2023/03/16 04:28:31;;;;;;;7.13;2.10;;;-3275.90;88.10;;;;;;5051035;28;20529;-74
2023/03/16 04:31:01;;;;;;;6.07;2.28;;;-3275.80;88.30;;;;;;5052628;28;20101;-75
2023/03/16 04:33:26;;;;;;;5.70;2.20;;;-3275.80;88.20;;;;;;5041163;28;20390;-74
2023/03/16 04:35:52;;;;;;;4.38;1.92;;;-3275.70;88.50;;;;;;5052411;28;20021;-74
2023/03/16 04:38:17;;;;;;;4.55;1.80;;;-3275.60;88.80;;;;;;5045763;28;20029;-74
2023/03/16 04:40:42;;;;;;;5.32;2.25;;;-3275.60;88.90;;;;;;5046708;28;20158;-75
2023/03/16 04:43:08;;;;;;;6.85;2.47;;;-3275.50;89.20;;;;;;5048931;28;20056;-74
2023/03/16 04:45:33;;;;;;;7.57;2.55;;;-3275.60;89.20;;;;;;5046964;28;20036;-73
2023/03/16 04:47:59;;;;;;;8.68;3.05;;;-3275.60;89.40;;;;;;5041531;28;20501;-72
2023/03/16 04:50:24;;;;;;;6.57;2.60;;;-3275.60;89.30;;;;;;5048114;28;20025;-74
2023/03/16 04:52:50;;;;;;;6.18;2.53;;;-3275.60;89.10;;;;;;5045709;28;20483;-74
2023/03/16 04:55:16;;;;;;;5.15;2.40;;;-3275.70;88.90;;;;;;5045983;28;20134;-75
2023/03/16 04:57:41;;;;;;;6.55;2.70;;;-3275.70;88.90;;;;;;5050991;28;20112;-74
2023/03/16 05:00:20;;;;;;;6.10;2.40;;;-3275.70;88.80;;;;;;5047165;28;20030;-74
2023/03/16 05:02:46;;;;;;;4.68;2.40;;;-3275.70;88.80;;;;;;5046641;28;20029;-74
2023/03/16 05:05:12;;;;;;;8.32;2.50;;;-3275.80;88.90;;;;;;5046309;28;20041;-74
2023/03/16 05:07:40;;;;;;;7.03;2.38;;;-3275.80;88.70;;;;;;5042028;28;20105;-74
2023/03/16 05:10:13;;;;;;;10.05;2.92;;;-3275.90;88.60;;;;;;5041793;28;20243;-75
2023/03/16 05:12:38;;;;;;;10.55;2.72;;;-3275.80;88.70;;;;;;5047374;28;20044;-74
2023/03/16 05:15:05;;;;;;;4.70;2.35;;;-3275.90;88.60;;;;;;5050427;28;20028;-74
2023/03/16 05:17:31;;;;;;;9.48;2.95;;;-3276.00;88.50;;;;;;5052096;28;20028;-74
2023/03/16 05:19:56;;;;;;;8.50;2.60;;;-3276.10;88.40;;;;;;5050548;28;20037;-74
2023/03/16 05:22:22;;;;;;;8.50;2.75;;;-3276.10;88.30;;;;;;5048575;28;20056;-74
2023/03/16 05:24:48;;;;;;;7.18;3.10;;;-3276.20;88.00;;;;;;5037062;28;20033;-74
2023/03/16 05:27:13;;;;;;;7.75;2.63;;;-3276.20;88.00;;;;;;5047731;28;20048;-73
2023/03/16 05:29:39;;;;;;;6.68;2.38;;;-3276.30;87.90;;;;;;5052014;28;20504;-74
2023/03/16 05:32:05;;;;;;;6.70;2.20;;;-3276.30;87.70;;;;;;5050529;28;20040;-74
2023/03/16 05:34:31;;;;;;;5.43;2.65;;;-3276.40;87.50;;;;;;5057896;28;20041;-74
2023/03/16 05:36:57;;;;;;;8.13;2.40;;;-3276.40;87.40;;;;;;5050142;28;20174;-74
2023/03/16 05:39:23;;;;;;;8.88;2.28;;;-3276.50;87.20;;;;;;5051979;28;20026;-73
2023/03/16 05:41:48;;;;;;;8.15;2.70;;;-3276.50;87.10;;;;;;5047092;28;20029;-73
2023/03/16 05:44:14;;;;;;;8.10;2.17;;;-3276.50;87.00;;;;;;5051601;28;20044;-74
2023/03/16 05:46:39;;;;;;;7.85;2.63;;;-3276.50;87.00;;;;;;5047044;28;20032;-71
2023/03/16 05:49:05;;;;;;;6.25;2.20;;;-3276.50;87.00;;;;;;5043164;28;20570;-74
2023/03/16 05:51:30;;;;;;;9.35;2.75;;;-3276.50;86.90;;;;;;5050895;28;20112;-74
2023/03/16 05:53:56;;;;;;;6.57;2.35;;;-3276.60;86.80;;;;;;5053830;28;20359;-74
2023/03/16 05:56:23;;;;;;;11.68;2.45;;;-3276.60;86.60;;;;;;5052838;28;20083;-74
2023/03/16 05:58:50;;;;;;;9.90;2.60;;;-3276.60;86.60;;;;;;5045326;28;20021;-71
2023/03/16 06:01:16;;;;;;;8.90;2.50;;;-3276.70;86.50;;;;;;5051369;28;20040;-71
2023/03/16 06:03:41;;;;;;;4.70;2.00;;;-3276.70;86.30;;;;;;5050238;28;20029;-73
2023/03/16 06:06:07;;;;;;;5.82;2.30;;;-3276.70;86.20;;;;;;5046799;28;20033;-74
2023/03/16 06:08:32;;;;;;;5.55;2.22;;;-3276.70;86.10;;;;;;5047255;28;20036;-75
2023/03/16 06:10:58;;;;;;;6.68;2.30;;;0.00;86.00;;;;;;5056240;28;20017;-74
2023/03/16 06:13:23;;;;;;;5.28;1.95;;;0.00;85.90;;;;;;5050849;28;20439;-74
2023/03/16 06:15:49;;;;;;;6.88;2.45;;;0.10;85.80;;;;;;5050482;28;20033;-77
2023/03/16 06:18:14;;;;;;;5.90;1.95;;;0.10;85.60;;;;;;5049228;28;20037;-75
2023/03/16 06:20:39;;;;;;;3.83;1.55;;;0.10;85.50;;;;;;5046150;28;20033;-75
2023/03/16 06:23:05;;;;;;;6.70;1.95;;;0.10;85.50;;;;;;5046922;28;20059;-76
2023/03/16 06:25:30;;;;;;;7.60;2.42;;;0.20;85.60;;;;;;5049289;28;20583;-78
2023/03/16 06:27:56;;;;;;;5.35;2.10;;;0.20;85.40;;;;;;5058011;28;20037;-75
2023/03/16 06:30:21;;;;;;;8.63;2.30;;;0.20;85.20;;;;;;5055937;28;20086;-72
2023/03/16 06:32:47;;;;;;;7.85;1.90;;;0.30;85.00;;;;;;5056969;28;20111;-77
2023/03/16 06:35:13;;;;;;;6.90;2.00;;;0.40;85.00;;;;;;5048791;28;20028;-76
2023/03/16 06:37:39;;;;;;;5.90;1.85;;;0.40;84.60;;;;;;5046427;28;20453;-76
2023/03/16 06:40:05;;;;;;;6.43;2.25;;;0.50;84.60;;;;;;5047411;28;20481;-76
2023/03/16 06:42:31;;;;;;;3.65;1.73;;;0.60;84.60;;;;;;5056084;28;20461;-77
2023/03/16 06:44:56;;;;;;;4.95;2.00;;;0.60;84.60;;;;;;5047594;28;20029;-77
2023/03/16 06:47:22;;;;;;;8.35;2.20;;;0.70;84.40;;;;;;5051891;28;20362;-75
2023/03/16 06:49:47;;;;;;;11.30;2.40;;;0.80;84.40;;;;;;5047428;28;20086;-72
2023/03/16 06:52:13;;;;;;;7.57;2.60;;;0.80;84.10;;;;;;5043919;28;20032;-77
2023/03/16 06:54:42;;;;;;;7.32;1.90;;;0.90;84.20;;;;;;5049142;28;20501;-75
2023/03/16 06:57:07;;;;;;;6.05;2.03;;;1.00;84.10;;;;;;5053145;28;20040;-75
2023/03/16 06:59:33;;;;;;;8.32;2.00;;;1.10;83.80;;;;;;5050308;28;20480;-76
2023/03/16 07:02:00;;;;;;;5.18;1.83;;;1.10;83.50;;;;;;5049017;28;20056;-76
2023/03/16 07:04:26;;;;;;;6.40;1.83;;;1.20;83.50;;;;;;5043440;28;20473;-75
2023/03/16 07:06:51;;;;;;;7.25;2.50;;;1.20;83.20;;;;;;5046330;28;20033;-75
2023/03/16 07:09:17;;;;;;;3.63;1.50;;;1.20;82.90;;;;;;5049088;28;20021;-76
2023/03/16 07:11:43;;;;;;;3.67;1.67;;;1.30;83.00;;;;;;5053583;28;20033;-75
2023/03/16 07:14:09;;;;;;;3.30;1.50;;;1.40;83.00;;;;;;5049821;28;20029;-73
2023/03/16 07:16:34;;;;;;;4.60;1.80;;;1.40;82.90;;;;;;5052483;28;20036;-74
2023/03/16 07:19:00;;;;;;;7.60;1.83;;;1.50;82.70;;;;;;5050958;28;20108;-76
2023/03/16 07:21:26;;;;;;;5.18;2.20;;;1.60;82.70;;;;;;5042827;28;20028;-75
2023/03/16 07:23:51;;;;;;;3.55;1.70;;;1.70;82.60;;;;;;5044429;28;20059;-74
2023/03/16 07:26:17;;;;;;;10.30;2.08;;;1.70;82.20;;;;;;5051566;28;20025;-77
2023/03/16 07:28:43;;;;;;;5.07;2.10;;;1.80;82.10;;;;;;5048773;28;20083;-76
2023/03/16 07:31:09;;;;;;;7.40;2.15;;;1.80;81.60;;;;;;5049902;28;20025;-76
2023/03/16 07:33:35;;;;;;;5.15;1.75;;;2.00;81.60;;;;;;5048503;28;20048;-75
2023/03/16 07:36:03;;;;;;;7.40;2.20;;;2.00;81.10;;;;;;5043385;28;20033;-77
2023/03/16 07:38:29;;;;;;;8.88;1.98;;;2.10;81.20;;;;;;5048861;28;20458;-75
2023/03/16 07:40:54;;;;;;;4.63;2.40;;;2.10;80.20;;;;;;5049975;28;20044;-76
2023/03/16 07:43:20;;;;;;;4.30;1.88;;;2.30;79.90;;;;;;5051074;28;20025;-77
2023/03/16 07:45:50;;;;;;;7.25;2.10;;;2.40;79.70;;;;;;5046416;28;20528;-77
2023/03/16 07:48:16;;;;;;;8.90;2.15;;;2.60;79.40;;;;;;5048240;28;20066;-77
2023/03/16 07:50:42;;;;;;;5.90;2.17;;;2.70;79.10;;;;;;5050552;28;20068;-76
2023/03/16 07:53:08;;;;;;;4.43;1.95;;;2.80;78.40;;;;;;5047050;28;20044;-77
2023/03/16 07:55:35;;;;;;;7.35;2.00;;;2.90;77.80;;;;;;5048440;28;20033;-77
2023/03/16 07:58:01;;;;;;;7.28;2.10;;;3.00;77.40;;;;;;5052453;28;20017;-77
2023/03/16 08:00:27;;;;;;;7.38;1.80;;;3.10;77.10;;;;;;5051682;28;20051;-76
2023/03/16 08:02:52;;;;;;;5.30;2.05;;;3.30;76.10;;;;;;5054309;28;20486;-73
2023/03/16 08:05:18;;;;;;;6.38;1.83;;;3.40;76.50;;;;;;5046498;28;20553;-76
2023/03/16 08:07:44;;;;;;;11.57;2.15;;;3.60;75.60;;;;;;5053048;28;20020;-76
2023/03/16 08:10:10;;;;;;;8.82;2.00;;;3.80;74.90;;;;;;5055028;28;20743;-76
2023/03/16 08:12:35;;;;;;;6.38;1.90;;;3.90;74.20;;;;;;5051083;28;20040;-77
2023/03/16 08:15:01;;;;;;;4.05;1.60;;;4.00;73.00;;;;;;5051561;28;20037;-74
2023/03/16 08:17:27;;;;;;;5.35;1.80;;;4.10;72.90;;;;;;5052498;28;20021;-78
2023/03/16 08:19:52;;;;;;;6.35;1.85;;;4.30;73.50;;;;;;5053287;28;20033;-77
2023/03/16 08:22:18;;;;;;;6.32;1.98;;;4.40;72.40;;;;;;5053514;28;20072;-77
2023/03/16 08:24:43;;;;;;;10.43;2.53;;;4.60;72.00;;;;;;5047116;28;20037;-78
2023/03/16 08:27:09;;;;;;;5.40;1.63;;;4.70;71.40;;;;;;5051250;28;20032;-75
2023/03/16 08:29:36;;;;;;;9.95;1.98;;;4.90;70.90;;;;;;5068361;28;20029;-77
2023/03/16 08:32:02;;;;;;;7.20;1.85;;;4.80;69.60;;;;;;5054302;28;20048;-73
2023/03/16 08:34:28;;;;;;;7.88;2.10;;;4.80;69.90;;;;;;5040250;28;20474;-78
2023/03/16 08:36:54;;;;;;;6.38;2.10;;;5.00;70.00;;;;;;5048793;28;20107;-78
2023/03/16 08:39:19;;;;;;;4.97;2.00;;;4.90;69.30;;;;;;5048983;28;20489;-78
2023/03/16 08:41:45;;;;;;;6.43;1.98;;;5.20;69.70;;;;;;5053401;28;20060;-75
2023/03/16 08:44:11;;;;;;;8.23;1.80;;;5.30;67.80;;;;;;5056670;28;20056;-76
2023/03/16 08:46:38;;;;;;;7.15;2.00;;;5.30;68.00;;;;;;5052417;28;21696;-78
2023/03/16 08:49:05;;;;;;;5.18;1.60;;;5.30;67.00;;;;;;5056046;28;20041;-78
2023/03/16 08:51:31;;;;;;;6.43;1.63;;;5.60;67.00;;;;;;5052188;28;20478;-75
2023/03/16 08:53:57;;;;;;;4.65;1.30;;;5.70;66.10;;;;;;5052967;28;20025;-78
2023/03/16 08:56:23;;;;;;;3.50;1.45;;;5.80;64.90;;;;;;5055402;28;20031;-77
2023/03/16 08:58:48;;;;;;;8.30;1.70;;;6.10;65.80;;;;;;5053769;28;20033;-76
2023/03/16 09:01:19;;;;;;;5.72;1.67;;;6.10;64.40;;;;;;5043509;28;20044;-74
2023/03/16 09:03:45;;;;;;;5.85;1.48;;;6.10;64.40;;;;;;5056892;28;20039;-79
2023/03/16 09:06:13;;;;;;;4.13;1.50;;;6.10;65.10;;;;;;5046981;28;20120;-78
2023/03/16 09:08:39;;;;;;;5.55;1.70;;;6.20;64.30;;;;;;5054244;28;20147;-78
2023/03/16 09:11:07;;;;;;;6.05;1.42;;;6.30;64.00;;;;;;5057764;28;20036;-77
2023/03/16 09:13:34;;;;;;;5.15;1.50;;;6.80;63.70;;;;;;5052211;28;20372;-77
2023/03/16 09:16:00;;;;;;;4.93;1.27;;;6.80;61.00;;;;;;5051128;28;20069;-74
2023/03/16 09:18:26;;;;;;;5.63;1.20;;;7.00;61.80;;;;;;5063481;28;20037;-72
2023/03/16 09:20:59;;;;;;;5.00;1.42;;;7.10;61.80;;;;;;5067881;28;20035;-72
2023/03/16 09:23:25;;;;;;;5.20;1.27;;;7.30;62.60;;;;;;5071493;28;20052;-78
2023/03/16 09:25:52;;;;;;;4.13;0.88;;;7.50;62.80;;;;;;5067504;28;20037;-76
2023/03/16 09:28:18;;;;;;;5.22;1.25;;;7.40;59.90;;;;;;5060321;28;20500;-78
2023/03/16 09:30:44;;;;;;;4.18;1.20;;;7.40;59.90;;;;;;5064474;28;20025;-77
2023/03/16 09:33:09;;;;;;;4.93;1.08;;;7.70;60.90;;;;;;5058520;28;20102;-77
2023/03/16 09:35:36;;;;;;;4.65;1.35;;;7.70;59.40;;;;;;5047630;28;20271;-77
2023/03/16 09:38:01;;;;;;;3.70;1.08;;;7.70;59.70;;;;;;5056036;28;20523;-74
2023/03/16 09:40:29;;;;;;;3.33;1.30;;;7.80;59.40;;;;;;5056424;28;20032;-77
2023/03/16 09:43:24;;;;;;;5.88;1.05;;;7.70;57.50;;;;;;5054898;28;20051;-77
2023/03/16 09:46:17;;;;;;;3.85;1.05;;;7.80;57.40;;;;;;5054409;28;20120;-77
2023/03/16 09:48:43;;;;;;;6.55;1.20;;;7.50;57.70;;;;;;5041134;28;20124;-76
2023/03/16 09:51:41;;;;;;;6.20;1.15;;;7.30;56.30;;;;;;5049726;28;20366;-74
2023/03/16 09:54:19;;;;;;;2.60;1.08;;;7.40;57.30;;;;;;5042422;28;20049;-75
2023/03/16 09:56:49;;;;;;;3.85;1.10;;;7.60;55.80;;;;;;5052117;28;20021;-77
2023/03/16 09:59:17;;;;;;;5.03;1.30;;;7.70;57.40;;;;;;5056741;28;20112;-77
2023/03/16 10:02:10;;;;;;;3.00;1.10;;;8.00;55.40;;;;;;5053632;28;20021;-77
2023/03/16 10:04:54;;;;;;;4.28;1.05;;;8.00;55.50;;;;;;5052023;28;20055;-78
2023/03/16 10:07:52;;;;;;;1.85;0.85;;;8.10;54.50;;;;;;5047501;28;20044;-78
2023/03/16 10:10:48;;;;;;;4.00;0.90;;;8.30;52.70;;;;;;5054718;28;20029;-77
2023/03/16 10:13:52;;;;;;;2.38;1.00;;;8.10;53.90;;;;;;5056082;28;20080;-77
2023/03/16 10:16:24;;;;;;;2.38;0.93;;;8.50;54.30;;;;;;5057348;28;20417;-75
2023/03/16 10:18:57;;;;;;;3.78;0.98;;;8.50;51.70;;;;;;5055272;28;20087;-78
2023/03/16 10:21:23;;;;;;;3.17;1.00;;;8.70;52.70;;;;;;5050037;28;20028;-74
2023/03/16 10:23:51;;;;;;;6.05;0.93;;;8.80;51.50;;;;;;5051970;28;20037;-77
2023/03/16 10:26:23;;;;;;;2.47;0.93;;;8.70;50.90;;;;;;5054156;28;20028;-76
2023/03/16 10:28:49;;;;;;;4.10;0.75;;;8.70;49.60;;;;;;5056532;28;20025;-77
2023/03/16 10:31:19;;;;;;;7.47;0.95;;;9.00;51.00;;;;;;5052536;28;20036;-77
2023/03/16 10:33:44;;;;;;;2.83;0.90;;;8.80;50.70;;;;;;5050018;28;20178;-77
2023/03/16 10:36:32;;;;;;;2.53;0.90;;;9.10;50.50;;;;;;5051734;28;20495;-77
2023/03/16 10:39:10;;;;;;;4.28;1.08;;;9.40;52.10;;;;;;5053251;28;20028;-77
2023/03/16 10:41:38;;;;;;;3.85;1.00;;;9.40;50.00;;;;;;5050729;28;20020;-76
2023/03/16 10:44:30;;;;;;;4.43;1.00;;;9.10;48.80;;;;;;5054766;28;20040;-77
2023/03/16 10:47:03;;;;;;;2.88;1.08;;;9.10;49.00;;;;;;5050072;28;20375;-72
2023/03/16 10:49:35;;;;;;;3.97;1.00;;;9.10;49.10;;;;;;5052413;28;20465;-77
2023/03/16 10:52:08;;;;;;;2.35;1.02;;;9.00;47.00;;;;;;5047907;28;20021;-73
2023/03/16 10:54:36;;;;;;;3.65;0.80;;;9.20;48.50;;;;;;5051148;28;20044;-77
2023/03/16 10:57:19;;;;;;;3.45;1.00;;;9.60;48.40;;;;;;5046967;28;20154;-77
2023/03/16 10:59:48;;;;;;;5.68;1.20;;;9.50;47.70;;;;;;5054365;28;20032;-76
2023/03/16 11:02:18;;;;;;;3.30;0.65;;;9.20;45.40;;;;;;5045071;28;20027;-76
2023/03/16 11:04:44;;;;;;;3.10;1.00;;;9.10;46.50;;;;;;5049163;28;20039;-73
2023/03/16 11:07:18;;;;;;;2.70;0.57;;;9.60;48.00;;;;;;5049062;28;20053;-76
2023/03/16 11:09:46;;;;;;;5.47;0.98;;;9.80;48.10;;;;;;5049683;28;20068;-77
2023/03/16 11:12:26;;;;;;;3.55;1.02;;;9.90;47.50;;;;;;5049680;28;20474;-76
2023/03/16 11:14:52;;;;;;;3.65;0.95;;;10.00;46.60;;;;;;5049723;28;20461;-77
2023/03/16 11:17:29;;;;;;;4.40;1.13;;;9.80;46.20;;;;;;5048721;28;20115;-77
2023/03/16 11:20:13;;;;;;;3.85;1.02;;;9.80;46.50;;;;;;5046926;28;20031;-77
2023/03/16 11:22:40;;;;;;;2.97;1.17;;;9.80;46.30;;;;;;5049376;28;20135;-74
2023/03/16 11:25:14;;;;;;;3.05;0.90;;;9.60;46.70;;;;;;5051589;28;20033;-77
2023/03/16 11:27:49;;;;;;;4.90;1.02;;;9.60;45.90;;;;;;5046468;28;20029;-77
2023/03/16 11:30:28;;;;;;;2.80;0.82;;;9.80;46.10;;;;;;5054142;28;20086;-75
2023/03/16 11:32:54;;;;;;;5.15;0.90;;;9.70;44.60;;;;;;5047025;28;20057;-76
2023/03/16 11:35:39;;;;;;;2.42;1.05;;;9.80;45.00;;;;;;5036232;28;20037;-78
2023/03/16 11:38:15;;;;;;;3.00;0.88;;;9.80;44.70;;;;;;5049656;28;20025;-77
2023/03/16 11:41:00;;;;;;;3.83;0.80;;;10.00;44.00;;;;;;5049471;28;20491;-78
2023/03/16 11:43:28;;;;;;;6.43;1.25;;;9.60;43.70;;;;;;5054173;28;20036;-77
2023/03/16 11:46:06;;;;;;;2.95;0.73;;;9.90;45.40;;;;;;5052193;28;20037;-76
2023/03/16 11:49:15;;;;;;;2.55;0.75;;;10.20;44.50;;;;;;5050588;28;20091;-73
2023/03/16 11:52:02;;;;;;;3.40;0.85;;;10.00;45.20;;;;;;5011751;28;20045;-80
2023/03/16 11:54:38;;;;;;;1.23;0.77;;;10.30;42.20;;;;;;5048047;28;21998;-75
2023/03/16 11:57:32;;;;;;;6.47;1.10;;;10.10;42.90;;;;;;5046591;28;20378;-76
2023/03/16 12:00:11;;;;;;;2.22;0.82;;;10.40;41.00;;;;;;5041771;28;20549;-76
2023/03/16 12:02:42;;;;;;;2.78;0.80;;;10.20;41.30;;;;;;5062555;28;20064;-75
2023/03/16 12:05:35;;;;;;;2.53;0.65;;;10.50;40.50;;;;;;5047436;28;20501;-76
2023/03/16 12:08:39;;;;;;;3.00;0.80;;;11.00;41.00;;;;;;5046665;28;20047;-77
2023/03/16 12:11:21;;;;;;;4.63;0.93;;;10.70;39.30;;;;;;5048774;28;20021;-75
2023/03/16 12:14:04;;;;;;;3.65;0.90;;;11.10;40.90;;;;;;5046141;28;20108;-75
2023/03/16 12:16:52;;;;;;;1.50;0.60;;;10.90;39.10;;;;;;5049685;28;20033;-75
2023/03/16 12:19:37;;;;;;;3.45;0.90;;;10.80;39.60;;;;;;5048488;28;20100;-75
2023/03/16 12:22:11;;;;;;;2.58;0.63;;;10.80;39.50;;;;;;5044250;28;20021;-75
2023/03/16 12:24:43;;;;;;;4.30;1.02;;;10.40;39.70;;;;;;5048421;28;20353;-75
2023/03/16 12:27:36;;;;;;;2.88;0.80;;;10.40;40.00;;;;;;5046425;28;20120;-75
2023/03/16 12:30:20;;;;;;;1.50;0.77;;;10.30;40.80;;;;;;5043180;28;20045;-75
2023/03/16 12:32:59;;;;;;;4.32;0.80;;;10.30;38.80;;;;;;5047349;28;20130;-75
2023/03/16 12:35:46;;;;;;;3.22;0.77;;;10.50;39.00;;;;;;5048931;28;20079;-75
2023/03/16 12:38:27;;;;;;;4.50;1.10;;;11.10;38.60;;;;;;5045779;28;20187;-75
2023/03/16 12:41:03;;;;;;;;;;;10.90;38.80;;;;;;5047318;28;20033;-75
2023/03/16 12:44:00;;;;;;;3.03;0.60;;;11.30;38.20;;;;;;5049743;28;20270;-75
2023/03/16 12:46:46;;;;;;;2.47;0.90;;;11.40;37.10;;;;;;5043843;28;20029;-75
2023/03/16 12:49:13;;;;;;;2.50;0.80;;;10.80;38.30;;;;;;5051061;28;20064;-76